createdAt,value
2023-03-19T00:02:17.822Z,89.60
2023-03-19T00:04:47.840Z,89.80
2023-03-19T00:07:15.845Z,89.80
2023-03-19T00:09:43.285Z,89.80
2023-03-19T00:12:12.001Z,89.60
2023-03-19T00:14:39.223Z,89.90
2023-03-19T00:17:06.804Z,90.00
2023-03-19T00:19:33.716Z,90.00
2023-03-19T00:22:00.605Z,90.00
2023-03-19T00:24:28.881Z,90.20
2023-03-19T00:26:55.903Z,90.30
2023-03-19T00:29:23.268Z,90.30
2023-03-19T05:30:34.511Z,94.00
2023-03-19T05:33:02.623Z,94.10
2023-03-19T05:35:30.414Z,94.00
2023-03-19T05:37:57.366Z,94.00
2023-03-19T05:40:24.348Z,94.30
2023-03-19T05:42:52.366Z,94.10
2023-03-19T05:45:19.475Z,94.20
2023-03-19T05:47:47.401Z,94.00
2023-03-19T05:50:14.493Z,94.00
2023-03-19T05:52:42.077Z,94.00
2023-03-19T05:55:09.605Z,94.10
2023-03-19T05:57:36.662Z,93.70
2023-03-19T06:00:06.555Z,93.50
2023-03-19T06:02:34.544Z,93.10
2023-03-19T06:05:01.758Z,93.20
2023-03-19T06:07:28.658Z,93.20
2023-03-19T06:09:55.579Z,93.30
2023-03-19T06:12:23.692Z,93.50
2023-03-19T06:14:51.211Z,93.40
2023-03-19T06:17:18.216Z,93.30
2023-03-19T06:19:45.116Z,93.60
2023-03-19T06:22:12.380Z,93.90
2023-03-19T06:24:39.339Z,93.90
2023-03-19T06:27:06.220Z,94.00
2023-03-19T06:29:33.166Z,94.10
2023-03-19T06:32:00.402Z,94.20
2023-03-19T06:34:27.596Z,94.20
2023-03-19T06:36:54.551Z,94.10
2023-03-19T06:39:21.587Z,94.00
2023-03-19T06:41:48.643Z,94.10
2023-03-19T06:44:16.305Z,93.80
2023-03-19T06:46:43.262Z,93.80
2023-03-19T06:49:10.331Z,93.90
2023-03-19T06:51:37.258Z,93.90
2023-03-19T06:54:04.285Z,94.00
2023-03-19T06:56:31.239Z,94.10
2023-03-19T06:58:58.208Z,94.20
2023-03-19T07:01:25.247Z,94.20
2023-03-19T07:03:52.334Z,94.10
2023-03-19T07:06:19.291Z,94.00
2023-03-19T07:08:46.498Z,93.50
2023-03-19T07:11:13.958Z,93.70
2023-03-19T07:13:41.171Z,93.90
2023-03-19T07:16:08.805Z,94.10
2023-03-19T07:18:35.888Z,94.20
2023-03-19T07:21:02.929Z,94.40
2023-03-19T07:23:29.955Z,94.40
2023-03-19T07:25:56.894Z,94.40
2023-03-19T07:28:23.857Z,94.50
2023-03-19T07:30:54.029Z,94.50
2023-03-19T07:33:21.234Z,94.30
2023-03-19T07:35:48.660Z,94.60
2023-03-19T07:38:16.013Z,94.80
2023-03-19T07:40:51.405Z,95.10
2023-03-19T07:43:22.287Z,94.90
2023-03-19T07:45:49.273Z,94.90
2023-03-19T07:48:16.277Z,95.10
2023-03-19T07:50:43.270Z,95.20
2023-03-19T07:53:10.195Z,95.20
2023-03-19T07:55:38.466Z,94.90
2023-03-19T07:58:05.919Z,95.00
2023-03-19T08:00:33.038Z,94.90
2023-03-19T08:03:00.174Z,95.00
2023-03-19T08:05:27.253Z,94.90
2023-03-19T08:07:54.177Z,95.00
2023-03-19T08:10:21.930Z,94.80
2023-03-19T08:12:48.934Z,94.60
2023-03-19T08:15:15.932Z,94.30
2023-03-19T08:17:42.877Z,94.40
2023-03-19T08:20:11.217Z,94.20
2023-03-19T08:22:38.644Z,93.90
2023-03-19T08:25:06.733Z,93.70
2023-03-19T08:27:35.629Z,93.80
2023-03-19T08:30:07.211Z,93.70
2023-03-19T08:32:34.405Z,93.20
2023-03-19T08:35:01.809Z,93.40
2023-03-19T08:37:28.862Z,93.50
2023-03-19T08:39:55.894Z,93.30
2023-03-19T08:42:23.005Z,93.30
2023-03-19T08:44:50.146Z,93.50
2023-03-19T08:47:17.069Z,93.50
2023-03-19T08:49:44.023Z,93.10
2023-03-19T08:52:11.075Z,93.10
2023-03-19T08:54:38.075Z,93.00
2023-03-19T08:57:05.249Z,92.00
2023-03-19T08:59:34.186Z,92.30
2023-03-19T09:02:01.532Z,92.00
2023-03-19T09:04:29.025Z,92.00
2023-03-19T09:06:56.054Z,92.50
2023-03-19T09:09:24.709Z,92.70
2023-03-19T09:11:51.779Z,92.10
2023-03-19T09:14:20.474Z,91.70
2023-03-19T09:16:47.464Z,91.60
2023-03-19T09:19:14.505Z,91.40
2023-03-19T09:21:41.452Z,90.50
2023-03-19T09:24:08.764Z,90.50
2023-03-19T09:26:36.173Z,90.80
2023-03-19T09:29:03.777Z,90.50
2023-03-19T09:31:30.838Z,90.50
2023-03-19T09:33:58.090Z,90.50
2023-03-19T09:36:25.577Z,90.60
2023-03-19T09:38:52.535Z,90.10
2023-03-19T09:41:31.463Z,90.00
2023-03-19T09:44:01.429Z,90.00
2023-03-19T09:46:35.729Z,89.70
2023-03-19T09:49:09.978Z,89.60
2023-03-19T09:51:57.266Z,89.00
2023-03-19T09:54:53.412Z,88.90
2023-03-19T09:57:20.825Z,89.10
2023-03-19T09:59:48.225Z,88.90
2023-03-19T10:02:33.630Z,88.80
2023-03-19T10:05:05.555Z,88.00
2023-03-19T10:07:35.306Z,88.60
2023-03-19T10:10:22.244Z,88.70
2023-03-19T10:12:55.287Z,88.50
2023-03-19T10:15:26.495Z,88.30
2023-03-19T10:18:04.672Z,87.70
2023-03-19T10:20:54.719Z,87.80
2023-03-19T10:23:37.857Z,87.60
2023-03-19T10:26:06.001Z,87.40
2023-03-19T10:28:32.982Z,87.80
2023-03-19T10:31:18.798Z,87.90
2023-03-19T10:33:52.445Z,87.60
2023-03-19T10:36:20.786Z,87.80
2023-03-19T10:38:47.897Z,86.40
2023-03-19T10:41:14.854Z,85.80
2023-03-19T10:43:43.184Z,86.20
2023-03-19T10:46:13.873Z,86.50
2023-03-19T10:48:47.561Z,86.70
2023-03-19T10:51:16.049Z,86.80
2023-03-19T10:53:42.931Z,86.30
2023-03-19T10:56:18.977Z,85.80
2023-03-19T10:59:00.284Z,84.60
2023-03-19T11:01:28.591Z,84.60
2023-03-19T11:03:57.175Z,85.60
2023-03-19T11:06:37.029Z,84.90
2023-03-19T11:09:10.631Z,85.00
2023-03-19T11:12:09.813Z,84.60
2023-03-19T11:14:38.494Z,84.70
2023-03-19T11:17:05.714Z,84.90
2023-03-19T11:19:34.570Z,83.90
2023-03-19T11:22:01.454Z,84.10
2023-03-19T11:24:31.180Z,84.10
2023-03-19T11:26:58.574Z,83.50
2023-03-19T11:29:27.010Z,82.80
2023-03-19T11:32:21.660Z,82.70
2023-03-19T11:34:53.848Z,83.00
2023-03-19T11:37:20.933Z,83.10
2023-03-19T11:40:06.537Z,83.10
2023-03-19T11:42:33.474Z,83.10
2023-03-19T11:45:03.242Z,83.20
2023-03-19T11:47:43.655Z,82.60
2023-03-19T11:50:19.340Z,82.60
2023-03-19T11:53:04.501Z,82.80
2023-03-19T11:55:39.299Z,82.00
2023-03-19T11:58:24.189Z,82.40
2023-03-19T12:00:51.429Z,81.80
2023-03-19T12:03:21.976Z,82.00
2023-03-19T12:06:06.137Z,82.40
2023-03-19T12:08:39.400Z,82.10
2023-03-19T12:11:09.149Z,82.30
2023-03-19T12:13:54.753Z,81.80
2023-03-19T12:16:22.111Z,82.90
2023-03-19T12:19:01.230Z,81.90
2023-03-19T12:21:47.128Z,80.90
2023-03-19T12:24:38.019Z,81.40
2023-03-19T12:27:15.207Z,81.00
2023-03-19T12:29:45.122Z,80.20
2023-03-19T12:32:27.195Z,80.20
2023-03-19T12:34:58.940Z,81.70
2023-03-19T12:37:26.060Z,80.60
2023-03-19T12:40:07.689Z,80.70
2023-03-19T12:42:37.528Z,80.80
2023-03-19T12:45:12.650Z,80.00
2023-03-19T12:47:40.668Z,80.90
2023-03-19T12:50:09.857Z,80.50
2023-03-19T12:52:40.432Z,80.70
2023-03-19T12:55:10.867Z,81.30
2023-03-19T12:57:42.732Z,80.60
2023-03-19T13:00:13.981Z,80.20
2023-03-19T13:02:47.504Z,79.80
2023-03-19T13:05:14.672Z,80.60
2023-03-19T13:07:50.598Z,80.40
2023-03-19T13:10:17.486Z,79.70
2023-03-19T13:12:44.696Z,79.30
2023-03-19T13:15:11.653Z,80.00
2023-03-19T13:17:53.651Z,79.10
2023-03-19T13:20:26.345Z,78.80
2023-03-19T13:22:55.680Z,79.70
2023-03-19T13:25:25.501Z,81.50
2023-03-19T13:27:56.255Z,81.50
2023-03-19T13:30:23.927Z,80.90
2023-03-19T13:33:04.217Z,80.20
2023-03-19T13:35:38.627Z,78.80
2023-03-19T13:38:17.787Z,78.70
2023-03-19T13:40:49.597Z,78.50
2023-03-19T13:43:29.132Z,78.10
2023-03-19T13:46:25.297Z,78.60
2023-03-19T13:48:52.977Z,79.10
2023-03-19T13:51:20.001Z,79.40
2023-03-19T13:53:52.863Z,80.00
2023-03-19T13:56:29.606Z,80.30
2023-03-19T13:59:15.562Z,79.90
2023-03-19T14:01:47.142Z,80.20
2023-03-19T14:04:23.123Z,79.40
2023-03-19T14:07:09.271Z,79.30
2023-03-19T14:09:42.100Z,79.20
2023-03-19T14:12:17.845Z,78.80
2023-03-19T14:14:53.626Z,78.70
2023-03-19T14:17:23.401Z,79.10
2023-03-19T14:19:52.304Z,78.60
2023-03-19T14:22:21.520Z,78.30
2023-03-19T14:24:58.059Z,78.00
2023-03-19T14:27:32.596Z,78.40
2023-03-19T14:30:02.991Z,78.00
2023-03-19T14:32:36.560Z,78.40
2023-03-19T14:35:04.983Z,77.70
2023-03-19T14:37:37.991Z,78.00
2023-03-19T14:40:12.876Z,78.10
2023-03-19T14:42:47.324Z,78.50
2023-03-19T14:45:32.912Z,78.80
2023-03-19T14:48:24.104Z,78.70
2023-03-19T14:50:58.637Z,79.30
2023-03-19T14:53:32.464Z,79.50
2023-03-19T14:56:02.564Z,79.90
2023-03-19T14:58:29.510Z,80.20
2023-03-19T15:00:56.477Z,80.30
2023-03-19T15:03:31.454Z,79.80
2023-03-19T15:06:00.033Z,80.30
2023-03-19T15:08:27.389Z,79.70
2023-03-19T15:10:57.190Z,80.00
2023-03-19T15:13:32.708Z,80.20
2023-03-19T15:16:18.243Z,80.80
2023-03-19T15:18:45.230Z,80.80
2023-03-19T15:21:12.457Z,81.60
2023-03-19T15:23:41.058Z,81.70
2023-03-19T15:26:11.632Z,82.40
2023-03-19T15:28:46.852Z,82.10
2023-03-19T15:31:31.216Z,82.20
2023-03-19T15:34:01.582Z,82.60
2023-03-19T15:36:30.227Z,82.40
2023-03-19T15:38:57.227Z,82.90
2023-03-19T15:41:25.668Z,83.00
2023-03-19T15:43:53.009Z,83.10
2023-03-19T15:46:23.364Z,83.20
2023-03-19T15:48:57.262Z,83.70
2023-03-19T15:51:26.122Z,84.00
2023-03-19T15:53:53.736Z,84.30
2023-03-19T15:56:20.939Z,84.70
2023-03-19T15:58:50.825Z,85.00
2023-03-19T16:01:19.603Z,85.30
2023-03-19T16:03:51.511Z,85.50
2023-03-19T16:06:18.502Z,85.80
2023-03-19T16:08:46.654Z,86.00
2023-03-19T16:11:26.248Z,86.10
2023-03-19T16:14:00.870Z,85.80
2023-03-19T16:16:29.363Z,85.90
2023-03-19T16:18:57.055Z,85.30
2023-03-19T16:21:25.595Z,85.30
2023-03-19T16:24:00.525Z,85.60
2023-03-19T16:26:30.322Z,85.50
2023-03-19T16:29:04.840Z,85.90
2023-03-19T16:31:33.822Z,85.70
2023-03-19T16:34:00.964Z,85.90
2023-03-19T16:36:30.158Z,86.00
2023-03-19T16:39:15.721Z,86.30
2023-03-19T16:41:42.716Z,86.40
2023-03-19T16:44:17.606Z,87.40
2023-03-19T16:46:44.780Z,88.70
2023-03-19T16:49:11.781Z,89.50
2023-03-19T16:51:38.943Z,90.00
2023-03-19T16:54:06.291Z,90.20
2023-03-19T16:56:33.292Z,90.30
2023-03-19T16:59:02.751Z,89.70
2023-03-19T17:01:29.970Z,87.60
2023-03-19T17:03:57.040Z,88.10
2023-03-19T17:06:24.044Z,88.30
2023-03-19T17:08:51.015Z,88.30
2023-03-19T17:11:28.035Z,87.80
2023-03-19T17:13:56.918Z,88.20
2023-03-19T17:16:24.232Z,88.90
2023-03-19T17:18:51.224Z,89.00
2023-03-19T17:21:21.377Z,89.30
2023-03-19T17:23:48.489Z,89.20
2023-03-19T17:26:19.580Z,89.40
2023-03-19T17:28:46.894Z,89.20
2023-03-19T17:31:21.491Z,89.40
2023-03-19T17:33:48.638Z,89.60
2023-03-19T17:36:15.664Z,90.00
2023-03-19T17:38:42.571Z,90.10
2023-03-19T17:41:13.849Z,90.30
2023-03-19T17:43:40.909Z,90.40
2023-03-19T17:46:09.418Z,90.50
2023-03-19T17:48:36.384Z,91.00
2023-03-19T17:51:03.424Z,91.00
2023-03-19T17:53:30.547Z,91.50
2023-03-19T17:55:57.629Z,91.60
2023-03-19T17:58:24.863Z,92.00
2023-03-19T18:00:52.395Z,91.90
2023-03-19T18:03:20.872Z,91.80
2023-03-19T18:05:50.193Z,92.20
2023-03-19T18:08:18.881Z,92.30
2023-03-19T18:10:46.104Z,92.50
2023-03-19T18:13:13.149Z,92.70
2023-03-19T18:15:41.308Z,92.60
2023-03-19T18:18:12.815Z,92.70
2023-03-19T18:20:39.842Z,92.70
2023-03-19T18:23:06.963Z,92.90
2023-03-19T18:25:35.556Z,92.80
2023-03-19T18:28:03.343Z,93.00
2023-03-19T18:30:32.473Z,93.00
2023-03-19T18:33:01.396Z,92.90
2023-03-19T18:35:29.710Z,93.00
2023-03-19T18:37:57.510Z,92.60
2023-03-19T18:40:25.950Z,92.20
2023-03-19T18:42:53.238Z,92.10
2023-03-19T18:45:20.272Z,92.10
2023-03-19T18:47:48.235Z,92.00
2023-03-19T18:50:15.244Z,92.20
2023-03-19T18:52:42.631Z,92.20
2023-03-19T18:55:10.924Z,92.30
2023-03-19T18:57:39.975Z,92.40
2023-03-19T19:00:13.907Z,92.50
2023-03-19T19:02:40.865Z,92.30
2023-03-19T19:05:13.473Z,92.40
2023-03-19T19:07:40.599Z,92.50
2023-03-19T19:10:08.922Z,92.60
2023-03-19T19:12:38.493Z,92.70
2023-03-19T19:15:05.873Z,92.90
2023-03-19T19:17:35.006Z,93.20
2023-03-19T19:20:01.955Z,93.10
2023-03-19T19:22:29.746Z,93.20
2023-03-19T19:24:56.908Z,93.20
2023-03-19T19:27:26.522Z,93.20
2023-03-19T19:29:53.560Z,93.40
2023-03-19T19:32:24.505Z,93.20
2023-03-19T19:34:51.943Z,93.10
2023-03-19T19:37:19.371Z,93.20
2023-03-19T19:39:46.561Z,93.00
2023-03-19T19:42:15.009Z,92.70
2023-03-19T19:44:42.445Z,92.70
2023-03-19T19:47:13.380Z,92.60
2023-03-19T19:49:40.504Z,92.40
2023-03-19T19:52:14.375Z,92.60
2023-03-19T19:54:41.312Z,92.50
2023-03-19T19:57:27.326Z,92.60
2023-03-19T19:59:56.256Z,92.80
2023-03-19T20:02:31.018Z,93.00
2023-03-19T20:04:58.005Z,92.80
2023-03-19T20:07:25.044Z,92.80
2023-03-19T20:09:52.132Z,92.90
2023-03-19T20:12:23.581Z,92.90
2023-03-19T20:14:51.128Z,92.80
2023-03-19T20:17:19.214Z,93.00
2023-03-19T20:19:46.359Z,93.00
2023-03-19T20:22:13.360Z,93.10
2023-03-19T20:24:40.566Z,93.10
2023-03-19T20:27:13.296Z,93.20
2023-03-19T20:29:40.450Z,93.40
2023-03-19T20:32:22.838Z,93.40
2023-03-19T20:34:49.742Z,93.40
2023-03-19T20:37:16.857Z,93.40
2023-03-19T20:39:44.380Z,93.40
2023-03-19T20:42:14.300Z,93.50
2023-03-19T20:44:42.235Z,93.50
2023-03-19T20:47:16.900Z,93.60
2023-03-19T20:49:44.068Z,93.60
2023-03-19T20:52:12.032Z,93.80
2023-03-19T20:54:41.790Z,93.80
2023-03-19T20:57:27.275Z,93.90
2023-03-19T20:59:54.217Z,93.90
2023-03-19T21:02:22.036Z,94.10
2023-03-19T21:04:49.030Z,94.10
2023-03-19T21:07:29.856Z,94.10
2023-03-19T21:09:57.639Z,94.20
2023-03-19T21:12:29.282Z,94.30
2023-03-19T21:14:59.960Z,94.20
2023-03-19T21:17:28.453Z,94.30
2023-03-19T21:19:55.530Z,94.40
2023-03-19T21:22:24.516Z,94.50
2023-03-19T21:24:52.686Z,94.50
2023-03-19T21:27:21.770Z,94.40
2023-03-19T21:29:49.244Z,94.50
2023-03-19T21:32:19.699Z,94.60
2023-03-19T21:34:48.858Z,94.60
2023-03-19T21:37:16.470Z,94.50
2023-03-19T21:39:43.760Z,94.40
2023-03-19T21:42:17.570Z,94.40
2023-03-19T21:44:45.828Z,94.40
2023-03-19T21:47:13.643Z,94.40
2023-03-19T21:49:40.860Z,94.40
2023-03-19T21:52:11.877Z,94.30
2023-03-19T21:54:40.217Z,94.30
2023-03-19T21:57:11.704Z,94.30
2023-03-19T21:59:40.622Z,94.40
2023-03-19T22:02:23.415Z,94.40
2023-03-19T22:04:50.364Z,94.40
2023-03-19T22:07:18.206Z,94.40
2023-03-19T22:09:45.299Z,94.30
2023-03-19T22:12:22.910Z,94.30
2023-03-19T22:14:49.817Z,94.30
2023-03-19T22:17:16.818Z,94.10
2023-03-19T22:19:43.873Z,94.20
2023-03-19T22:22:11.378Z,94.20
2023-03-19T22:24:38.293Z,94.30
2023-03-19T22:27:05.569Z,94.20
2023-03-19T22:29:32.793Z,94.20
2023-03-19T22:31:59.804Z,94.20
2023-03-19T22:34:27.794Z,94.10
2023-03-19T22:36:54.701Z,94.10
2023-03-19T22:39:21.601Z,94.00
2023-03-19T22:41:49.144Z,94.00
2023-03-19T22:44:22.817Z,93.90
2023-03-19T22:46:49.925Z,93.70
2023-03-19T22:49:17.177Z,93.70
2023-03-19T22:51:44.120Z,93.60
2023-03-19T22:54:11.649Z,93.60
2023-03-19T22:56:38.659Z,93.60
2023-03-19T22:59:05.603Z,93.80
2023-03-19T23:01:35.482Z,93.80
2023-03-19T23:04:14.052Z,93.80
2023-03-19T23:06:41.020Z,93.90
2023-03-19T23:09:11.046Z,94.00
2023-03-19T23:11:39.376Z,93.90
2023-03-19T23:14:10.329Z,94.00
2023-03-19T23:16:43.367Z,94.10
2023-03-19T23:19:12.985Z,93.90
2023-03-19T23:21:39.874Z,93.80
2023-03-19T23:24:11.495Z,93.80
2023-03-19T23:26:39.149Z,93.80
2023-03-19T23:29:06.538Z,94.00
2023-03-19T23:31:34.557Z,94.40
2023-03-19T23:34:01.617Z,94.60
2023-03-19T23:36:28.592Z,94.90
2023-03-19T23:38:56.390Z,94.90
2023-03-19T23:41:26.621Z,94.40
2023-03-19T23:43:54.560Z,94.20
2023-03-19T23:46:22.005Z,94.40
2023-03-19T23:48:49.011Z,94.30
2023-03-19T23:51:16.329Z,94.40
2023-03-19T23:53:43.492Z,94.30
2023-03-19T23:56:24.004Z,94.30
2023-03-19T23:58:51.702Z,94.30
